Time;durP1;ratioP1;P1;durP2;ratioP2;P2;SDS_P1;SDS_P2;PMS_P1;PMS_P2;Temp;Humidity;BMP_temperature;BMP_pressure;BME280_temperature;BME280_humidity;BME280_pressure;Samples;Min_cycle;Max_cycle;Signal;HPM_P1;HPM_P2
2023/05/06 00:02:16;;;;;;;1.70;1.50;;;;;;;-143.99;100.00;64180.81;6142289;28;20231;-71
2023/05/06 00:05:37;;;;;;;2.43;1.97;;;;;;;-143.99;100.00;64180.81;6134762;28;20234;-72
2023/05/06 00:08:58;;;;;;;4.20;3.47;;;;;;;-143.99;100.00;64180.81;6140148;28;20239;-70
2023/05/06 00:12:18;;;;;;;2.70;1.93;;;;;;;-143.99;100.00;64180.81;6142164;28;20231;-71
2023/05/06 00:15:39;;;;;;;2.30;1.93;;;;;;;-143.99;100.00;64180.81;6138623;28;20238;-70
2023/05/06 00:19:02;;;;;;;4.97;2.23;;;;;;;-143.99;100.00;64180.81;6150016;28;20366;-71
2023/05/06 00:22:23;;;;;;;3.43;2.23;;;;;;;-143.99;100.00;64180.81;6147794;28;20263;-70
2023/05/06 00:25:44;;;;;;;4.90;4.07;;;;;;;-143.99;100.00;64180.81;6132821;28;20239;-71
2023/05/06 00:29:05;;;;;;;3.53;1.90;;;;;;;-143.99;100.00;64180.81;6143234;28;20235;-72
2023/05/06 00:32:26;;;;;;;7.17;3.17;;;;;;;-143.99;100.00;64180.81;6127554;28;20264;-71
2023/05/06 00:35:48;;;;;;;2.73;1.50;;;;;;;-143.99;100.00;64180.81;6137576;28;20242;-71
2023/05/06 00:39:09;;;;;;;1.97;1.80;;;;;;;-143.99;100.00;64180.81;6141931;28;20230;-71
2023/05/06 00:42:30;;;;;;;4.13;2.53;;;;;;;-143.99;100.00;64180.81;6145769;28;20569;-71
2023/05/06 00:45:51;;;;;;;1.93;1.63;;;;;;;-143.99;100.00;64180.81;6128459;28;20218;-72
2023/05/06 00:49:12;;;;;;;1.37;1.27;;;;;;;-143.99;100.00;64180.81;6146829;28;20231;-71
2023/05/06 00:52:35;;;;;;;2.43;1.77;;;;;;;-143.99;100.00;64180.81;6142662;28;20247;-72
2023/05/06 00:55:56;;;;;;;3.40;2.57;;;;;;;-143.99;100.00;64180.81;6138017;28;20234;-71
2023/05/06 00:59:17;;;;;;;4.10;2.87;;;;;;;-143.99;100.00;64180.81;6138628;28;20235;-72
2023/05/06 01:02:38;;;;;;;2.17;1.90;;;;;;;-143.99;100.00;64180.81;6126548;28;20521;-71
2023/05/06 01:06:07;;;;;;;1.60;1.50;;;;;;;-143.99;100.00;64180.81;6130027;28;20238;-71
2023/05/06 01:09:37;;;;;;;2.07;1.60;;;;;;;-143.99;100.00;64180.81;6137452;28;22451;-71
2023/05/06 01:13:05;;;;;;;1.60;1.50;;;;;;;-143.99;100.00;64180.81;6141827;28;20231;-71
2023/05/06 01:16:29;;;;;;;2.30;2.07;;;;;;;-143.99;100.00;64180.81;6133953;28;20604;-72
2023/05/06 01:19:53;;;;;;;6.50;2.87;;;;;;;-143.99;100.00;64180.81;6134379;28;20223;-72
2023/05/06 01:23:15;;;;;;;4.40;2.10;;;;;;;-143.99;100.00;64180.81;6133865;28;20781;-72
2023/05/06 01:26:36;;;;;;;2.93;1.47;;;;;;;-143.99;100.00;64180.81;6141218;28;20231;-71
2023/05/06 01:29:58;;;;;;;4.37;1.97;;;;;;;-143.99;100.00;64180.81;6124908;28;20326;-72
2023/05/06 01:33:29;;;;;;;3.00;2.20;;;;;;;-143.99;100.00;64180.81;6143894;28;20231;-71
2023/05/06 01:36:58;;;;;;;2.67;1.80;;;;;;;-143.99;100.00;64180.81;6142428;28;20226;-71
2023/05/06 01:40:21;;;;;;;5.53;2.40;;;;;;;-143.99;100.00;64180.81;6133051;28;20238;-72
2023/05/06 01:43:44;;;;;;;3.47;2.40;;;;;;;-143.99;100.00;64180.81;6151358;28;20242;-75
2023/05/06 01:47:05;;;;;;;6.00;2.50;;;;;;;-143.99;100.00;64180.81;6134659;28;20235;-71
2023/05/06 01:50:28;;;;;;;3.00;2.67;;;;;;;-143.99;100.00;64180.81;6128705;28;20235;-72
2023/05/06 01:53:48;;;;;;;2.50;1.87;;;;;;;-143.99;100.00;64180.81;6138468;28;20748;-71
2023/05/06 01:57:11;;;;;;;2.13;2.03;;;;;;;-143.99;100.00;64180.81;6130061;28;20570;-71
2023/05/06 02:00:32;;;;;;;2.73;1.77;;;;;;;-143.99;100.00;64180.81;6147473;28;20254;-71
2023/05/06 02:03:53;;;;;;;3.53;2.30;;;;;;;-143.99;100.00;64180.81;6138175;28;20235;-71
2023/05/06 02:07:14;;;;;;;1.60;1.50;;;;;;;-143.99;100.00;64180.81;6129662;28;20232;-72
2023/05/06 02:10:35;;;;;;;2.97;2.20;;;;;;;-143.99;100.00;64180.81;6145753;28;20347;-71
2023/05/06 02:14:01;;;;;;;3.67;1.70;;;;;;;-143.99;100.00;64180.81;6147162;28;20238;-71
2023/05/06 02:17:23;;;;;;;2.93;1.90;;;;;;;-143.99;100.00;64180.81;6133675;28;20231;-71
2023/05/06 02:20:44;;;;;;;12.20;2.73;;;;;;;-143.99;100.00;64180.81;6118442;28;20223;-72
2023/05/06 02:24:10;;;;;;;2.83;1.57;;;;;;;-143.99;100.00;64180.81;6141529;28;20317;-72
2023/05/06 02:27:30;;;;;;;2.40;2.17;;;;;;;-143.99;100.00;64180.81;6138298;28;20231;-71
2023/05/06 02:30:56;;;;;;;4.27;2.20;;;;;;;-143.99;100.00;64180.81;6127668;28;20234;-71
2023/05/06 02:34:17;;;;;;;1.90;1.80;;;;;;;-143.99;100.00;64180.81;6141275;28;20236;-71
2023/05/06 02:37:37;;;;;;;2.10;1.90;;;;;;;-143.99;100.00;64180.81;6103399;28;20251;-70
2023/05/06 02:40:58;;;;;;;3.77;2.77;;;;;;;-143.99;100.00;64180.81;6132715;28;20313;-72
2023/05/06 02:44:20;;;;;;;2.83;2.57;;;;;;;-143.99;100.00;64180.81;6136187;28;20239;-71
2023/05/06 02:47:42;;;;;;;2.20;1.87;;;;;;;-143.99;100.00;64180.81;6137202;28;20239;-71
2023/05/06 02:51:05;;;;;;;2.63;1.87;;;;;;;-143.99;100.00;64180.81;6128700;28;20227;-71
2023/05/06 02:54:26;;;;;;;4.33;2.53;;;;;;;-143.99;100.00;64180.81;6135150;28;20235;-71
2023/05/06 02:57:47;;;;;;;2.27;2.07;;;;;;;-143.99;100.00;64180.81;6141411;28;20246;-71
2023/05/06 03:01:08;;;;;;;2.47;2.23;;;;;;;-143.99;100.00;64180.81;6139409;28;20234;-71
2023/05/06 03:04:31;;;;;;;1.97;1.87;;;;;;;-143.99;100.00;64180.81;6139679;28;20243;-71
2023/05/06 03:07:51;;;;;;;3.57;2.53;;;;;;;-143.99;100.00;64180.81;6130104;28;20585;-72
2023/05/06 03:11:12;;;;;;;2.97;2.13;;;;;;;-143.99;100.00;64180.81;6142161;28;20226;-72
2023/05/06 03:14:34;;;;;;;2.30;2.17;;;;;;;-143.99;100.00;64180.81;6135829;28;20668;-70
2023/05/06 03:17:54;;;;;;;2.93;2.63;;;;;;;-143.99;100.00;64180.81;6132753;28;20607;-70
2023/05/06 03:21:17;;;;;;;3.27;2.97;;;;;;;-143.99;100.00;64180.81;6136240;28;20238;-71
2023/05/06 03:24:40;;;;;;;8.60;2.40;;;;;;;-143.99;100.00;64180.81;6141827;28;20235;-70
2023/05/06 03:28:01;;;;;;;3.67;2.53;;;;;;;-143.99;100.00;64180.81;6140129;28;20239;-70
2023/05/06 03:31:24;;;;;;;2.03;1.70;;;;;;;-143.99;100.00;64180.81;6134597;28;20512;-70
2023/05/06 03:34:46;;;;;;;5.83;2.83;;;;;;;-143.99;100.00;64180.81;6144510;28;20262;-70
2023/05/06 03:38:13;;;;;;;3.33;2.67;;;;;;;-143.99;100.00;64180.81;6130944;28;20251;-70
2023/05/06 03:41:48;;;;;;;2.23;2.03;;;;;;;-143.99;100.00;64180.81;6136409;28;20511;-70
2023/05/06 03:45:09;;;;;;;3.10;2.30;;;;;;;-143.99;100.00;64180.81;6127170;28;20234;-70
2023/05/06 03:48:31;;;;;;;4.60;2.97;;;;;;;-143.99;100.00;64180.81;6148562;28;20633;-70
2023/05/06 03:51:52;;;;;;;3.83;2.40;;;;;;;-143.99;100.00;64180.81;6147874;28;20258;-70
2023/05/06 03:55:15;;;;;;;2.97;2.43;;;;;;;-143.99;100.00;64180.81;6135679;28;20623;-70
2023/05/06 03:58:35;;;;;;;1.60;1.50;;;;;;;-143.99;100.00;64180.81;6156021;28;20239;-70
2023/05/06 04:01:58;;;;;;;2.20;2.00;;;;;;;-143.99;100.00;64180.81;6137093;28;20231;-70
2023/05/06 04:05:19;;;;;;;2.50;2.13;;;;;;;-143.99;100.00;64180.81;6136515;28;20246;-70
2023/05/06 04:08:41;;;;;;;6.00;3.37;;;;;;;-143.99;100.00;64180.81;6133989;28;20243;-70
2023/05/06 04:12:04;;;;;;;2.57;2.17;;;;;;;-143.99;100.00;64180.81;6146920;28;20321;-71
2023/05/06 04:15:25;;;;;;;3.33;2.23;;;;;;;-143.99;100.00;64180.81;6132205;28;20226;-70
2023/05/06 04:18:46;;;;;;;2.40;1.97;;;;;;;-143.99;100.00;64180.81;6141892;28;20231;-71
2023/05/06 04:22:09;;;;;;;3.13;2.80;;;;;;;-143.99;100.00;64180.81;6137897;28;20238;-70
2023/05/06 04:25:31;;;;;;;3.80;3.30;;;;;;;-143.99;100.00;64180.81;6130935;28;20246;-71
2023/05/06 04:28:54;;;;;;;2.23;2.03;;;;;;;-143.99;100.00;64180.81;6137548;28;20617;-70
2023/05/06 04:32:16;;;;;;;3.83;2.43;;;;;;;-143.99;100.00;64180.81;6121836;28;20326;-69
2023/05/06 04:35:37;;;;;;;3.70;2.67;;;;;;;-143.99;100.00;64180.81;6149582;28;20317;-71
2023/05/06 04:38:59;;;;;;;2.70;2.47;;;;;;;-143.99;100.00;64180.81;6135052;28;20267;-71
2023/05/06 04:42:20;;;;;;;5.73;2.33;;;;;;;-143.99;100.00;64180.81;6141252;28;20826;-71
2023/05/06 04:46:00;;;;;;;4.50;2.13;;;;;;;-143.99;100.00;64180.81;6130969;28;20243;-70
2023/05/06 04:49:24;;;;;;;3.07;2.77;;;;;;;-143.99;100.00;64180.81;6135504;28;20230;-70
2023/05/06 04:52:46;;;;;;;2.80;2.53;;;;;;;-143.99;100.00;64180.81;6122557;28;20231;-70
2023/05/06 04:56:09;;;;;;;2.33;2.13;;;;;;;-143.99;100.00;64180.81;6120317;28;20235;-71
2023/05/06 04:59:30;;;;;;;2.63;2.40;;;;;;;-143.99;100.00;64180.81;6132080;28;20238;-71
2023/05/06 05:02:53;;;;;;;2.67;2.40;;;;;;;-143.99;100.00;64180.81;6130041;28;20724;-71
2023/05/06 05:06:14;;;;;;;4.10;1.87;;;;;;;-143.99;100.00;64180.81;6138299;28;20230;-71
2023/05/06 05:09:36;;;;;;;2.83;2.53;;;;;;;-143.99;100.00;64180.81;6138265;28;20231;-70
2023/05/06 05:12:57;;;;;;;2.53;2.23;;;;;;;-143.99;100.00;64180.81;6134920;28;20550;-71
2023/05/06 05:16:19;;;;;;;5.07;3.27;;;;;;;-143.99;100.00;64180.81;6142779;28;20246;-70
2023/05/06 05:19:42;;;;;;;4.30;2.10;;;;;;;-143.99;100.00;64180.81;6152953;28;20223;-70
2023/05/06 05:23:03;;;;;;;2.43;2.33;;;;;;;-143.99;100.00;64180.81;6137417;28;20238;-71
2023/05/06 05:26:26;;;;;;;6.60;2.60;;;;;;;-143.99;100.00;64180.81;6136057;28;20254;-71
2023/05/06 05:29:48;;;;;;;3.03;2.17;;;;;;;-143.99;100.00;64180.81;6127776;28;20231;-71
2023/05/06 05:33:10;;;;;;;3.03;2.73;;;;;;;-143.99;100.00;64180.81;6125731;28;20251;-71
2023/05/06 05:36:33;;;;;;;4.23;2.30;;;;;;;-143.99;100.00;64180.81;6149068;28;20321;-71
2023/05/06 05:39:57;;;;;;;3.67;3.37;;;;;;;-143.99;100.00;64180.81;6123280;28;20235;-71
2023/05/06 05:43:20;;;;;;;3.27;3.00;;;;;;;-143.99;100.00;64180.81;6135829;28;20247;-70
2023/05/06 05:46:42;;;;;;;5.73;2.80;;;;;;;-143.99;100.00;64180.81;6137414;28;20258;-70
2023/05/06 05:50:08;;;;;;;3.17;2.40;;;;;;;-143.99;100.00;64180.81;6130326;28;20244;-71
2023/05/06 05:53:31;;;;;;;3.00;2.80;;;;;;;-143.99;100.00;64180.81;6140207;28;20239;-71
2023/05/06 05:56:52;;;;;;;4.10;3.13;;;;;;;-143.99;100.00;64180.81;6139729;28;20315;-70
2023/05/06 06:00:14;;;;;;;3.13;2.87;;;;;;;-143.99;100.00;64180.81;6145946;28;20233;-71
2023/05/06 06:03:38;;;;;;;13.73;2.70;;;;;;;-143.99;100.00;64180.81;6144260;28;20227;-71
2023/05/06 06:07:00;;;;;;;2.63;2.43;;;;;;;-143.99;100.00;64180.81;6137655;28;20234;-72
2023/05/06 06:10:24;;;;;;;6.07;3.30;;;;;;;-143.99;100.00;64180.81;6126252;28;20235;-71
2023/05/06 06:13:45;;;;;;;3.20;2.60;;;;;;;-143.99;100.00;64180.81;6143185;28;20231;-70
2023/05/06 06:17:07;;;;;;;2.90;2.73;;;;;;;-143.99;100.00;64180.81;6126780;28;20237;-70
2023/05/06 06:20:28;;;;;;;3.17;2.87;;;;;;;-143.99;100.00;64180.81;6130738;28;20234;-70
2023/05/06 06:23:51;;;;;;;2.70;2.50;;;;;;;-143.99;100.00;64180.81;6135593;28;20232;-71
2023/05/06 06:27:15;;;;;;;2.70;2.47;;;;;;;-143.99;100.00;64180.81;6143832;28;20239;-71
2023/05/06 06:30:35;;;;;;;3.33;3.00;;;;;;;-143.99;100.00;64180.81;6131508;28;20239;-70
2023/05/06 06:33:56;;;;;;;9.40;2.87;;;;;;;-143.99;100.00;64180.81;6141460;28;20243;-70
2023/05/06 06:37:18;;;;;;;4.40;3.20;;;;;;;-143.99;100.00;64180.81;6152167;28;20262;-70
2023/05/06 06:40:38;;;;;;;3.43;3.07;;;;;;;-143.99;100.00;64180.81;6138259;28;20230;-71
2023/05/06 06:44:01;;;;;;;3.27;2.80;;;;;;;-143.99;100.00;64180.81;6144555;28;20235;-70
2023/05/06 06:47:23;;;;;;;3.63;2.77;;;;;;;-143.99;100.00;64180.81;6137275;28;20647;-70
2023/05/06 06:50:44;;;;;;;4.73;2.80;;;;;;;-143.99;100.00;64180.81;6134315;28;20409;-70
2023/05/06 06:54:05;;;;;;;3.90;3.07;;;;;;;-143.99;100.00;64180.81;6151677;28;20231;-70
2023/05/06 06:57:26;;;;;;;3.27;2.57;;;;;;;-143.99;100.00;64180.81;6151225;28;20517;-70
2023/05/06 07:00:48;;;;;;;3.73;2.83;;;;;;;-143.99;100.00;64180.81;6131572;28;20238;-70
2023/05/06 07:04:09;;;;;;;3.30;3.00;;;;;;;-143.99;100.00;64180.81;6148495;28;20231;-70
2023/05/06 07:07:30;;;;;;;3.70;3.30;;;;;;;-143.99;100.00;64180.81;6145108;28;20258;-71
2023/05/06 07:10:51;;;;;;;2.63;2.03;;;;;;;-143.99;100.00;64180.81;6144012;28;20562;-70
2023/05/06 07:14:13;;;;;;;3.27;2.93;;;;;;;-143.99;100.00;64180.81;6151155;28;20261;-71
2023/05/06 07:17:35;;;;;;;2.67;2.47;;;;;;;-143.99;100.00;64180.81;6149918;28;20289;-71
2023/05/06 07:20:56;;;;;;;3.80;3.07;;;;;;;-143.99;100.00;64180.81;6145514;28;20773;-70
2023/05/06 07:24:17;;;;;;;3.47;3.13;;;;;;;-143.99;100.00;64180.81;6149858;28;20781;-70
2023/05/06 07:27:38;;;;;;;4.13;2.73;;;;;;;-143.99;100.00;64180.81;6149333;28;20273;-70
2023/05/06 07:30:59;;;;;;;5.23;2.93;;;;;;;-143.99;100.00;64180.81;6143348;28;20222;-71
2023/05/06 07:34:21;;;;;;;5.43;3.93;;;;;;;-143.99;100.00;64180.81;6146765;28;20234;-71
2023/05/06 07:37:42;;;;;;;2.70;2.50;;;;;;;-143.99;100.00;64180.81;6119550;28;20280;-71
2023/05/06 07:41:03;;;;;;;3.87;3.23;;;;;;;-143.99;100.00;64180.81;6140104;28;20636;-70
2023/05/06 07:44:23;;;;;;;4.77;3.60;;;;;;;-143.99;100.00;64180.81;6151479;28;20876;-71
2023/05/06 07:47:44;;;;;;;4.00;3.10;;;;;;;-143.99;100.00;64180.81;6140766;28;20246;-71
2023/05/06 07:51:07;;;;;;;4.20;3.80;;;;;;;-143.99;100.00;64180.81;6130118;28;20231;-71
2023/05/06 07:54:30;;;;;;;3.37;2.60;;;;;;;-143.99;100.00;64180.81;6137169;28;22579;-71
2023/05/06 07:57:51;;;;;;;4.67;3.63;;;;;;;-143.99;100.00;64180.81;6152142;28;20489;-71
2023/05/06 08:01:12;;;;;;;4.27;3.17;;;;;;;-143.99;100.00;64180.81;6135165;28;20795;-71
2023/05/06 08:04:33;;;;;;;3.10;2.80;;;;;;;-143.99;100.00;64180.81;6140792;28;20715;-70
2023/05/06 08:07:55;;;;;;;3.87;3.23;;;;;;;-143.99;100.00;64180.81;6139209;28;20231;-71
2023/05/06 08:11:16;;;;;;;6.73;4.57;;;;;;;-143.99;100.00;64180.81;6134700;28;20231;-71
2023/05/06 08:14:37;;;;;;;6.93;4.40;;;;;;;-143.99;100.00;64180.81;6143952;28;20545;-69
2023/05/06 08:17:58;;;;;;;4.33;2.83;;;;;;;-143.99;100.00;64180.81;6140353;28;20251;-70
2023/05/06 08:21:19;;;;;;;3.13;2.53;;;;;;;-143.99;100.00;64180.81;6129677;28;20238;-71
2023/05/06 08:24:41;;;;;;;3.47;3.27;;;;;;;-143.99;100.00;64180.81;6140355;28;20226;-71
2023/05/06 08:28:02;;;;;;;6.90;4.17;;;;;;;-143.99;100.00;64180.81;6139941;28;20243;-71
2023/05/06 08:31:23;;;;;;;4.90;3.10;;;;;;;-143.99;100.00;64180.81;6141635;28;20604;-71
2023/05/06 08:34:44;;;;;;;3.83;3.53;;;;;;;-143.99;100.00;64180.81;6135268;28;20235;-71
2023/05/06 08:38:05;;;;;;;3.40;2.30;;;;;;;-143.99;100.00;64180.81;6140367;28;20235;-71
2023/05/06 08:41:29;;;;;;;4.17;3.87;;;;;;;-143.99;100.00;64180.81;6135800;28;20234;-71
2023/05/06 08:44:51;;;;;;;3.60;3.30;;;;;;;-143.99;100.00;64180.81;6126539;28;20239;-71
2023/05/06 08:48:12;;;;;;;4.60;3.40;;;;;;;-143.99;100.00;64180.81;6150071;28;20235;-70
2023/05/06 08:51:34;;;;;;;3.83;2.90;;;;;;;-143.99;100.00;64180.81;6132084;28;20242;-71
2023/05/06 08:55:00;;;;;;;12.93;9.53;;;;;;;-143.99;100.00;64180.81;6125453;28;20331;-71
2023/05/06 08:58:25;;;;;;;4.57;3.80;;;;;;;-143.99;100.00;64180.81;6141383;28;20231;-71
2023/05/06 09:01:46;;;;;;;3.87;3.00;;;;;;;-143.99;100.00;64180.81;6139350;28;20227;-71
2023/05/06 09:05:09;;;;;;;3.73;3.00;;;;;;;-143.99;100.00;64180.81;6132952;28;20243;-72
2023/05/06 09:08:30;;;;;;;4.17;3.43;;;;;;;-143.99;100.00;64180.81;6147915;28;20247;-71
2023/05/06 09:11:52;;;;;;;4.40;3.50;;;;;;;-143.99;100.00;64180.81;6136926;28;20226;-71
2023/05/06 09:15:15;;;;;;;3.97;2.67;;;;;;;-143.99;100.00;64180.81;6127138;28;20234;-70
2023/05/06 09:18:36;;;;;;;4.70;3.70;;;;;;;-143.99;100.00;64180.81;6143139;28;20244;-70
2023/05/06 09:21:58;;;;;;;3.07;2.77;;;;;;;-143.99;100.00;64180.81;6135889;28;20613;-70
2023/05/06 09:25:19;;;;;;;20.00;5.40;;;;;;;-143.99;100.00;64180.81;6134110;28;20239;-71
2023/05/06 09:28:46;;;;;;;4.40;3.30;;;;;;;-143.99;100.00;64180.81;6137407;28;20633;-71
2023/05/06 09:32:09;;;;;;;4.70;4.30;;;;;;;-143.99;100.00;64180.81;6135568;28;20227;-71
2023/05/06 09:35:36;;;;;;;5.70;3.67;;;;;;;-143.99;100.00;64180.81;6131073;28;20313;-71
2023/05/06 09:38:57;;;;;;;4.73;4.23;;;;;;;-143.99;100.00;64180.81;6144705;28;20234;-70
2023/05/06 09:42:18;;;;;;;3.80;3.43;;;;;;;-143.99;100.00;64180.81;6135094;28;20262;-71
2023/05/06 09:45:39;;;;;;;5.80;3.57;;;;;;;-143.99;100.00;64180.81;6122360;28;20238;-71
2023/05/06 09:49:02;;;;;;;5.20;4.10;;;;;;;-143.99;100.00;64180.81;6140027;28;20219;-71
2023/05/06 09:52:23;;;;;;;8.97;3.57;;;;;;;-143.99;100.00;64180.81;6142126;28;20629;-72
2023/05/06 09:55:45;;;;;;;5.17;3.93;;;;;;;-143.99;100.00;64180.81;6126637;28;20235;-70
2023/05/06 09:59:07;;;;;;;14.23;4.27;;;;;;;-143.99;100.00;64180.81;6135185;28;20231;-71
2023/05/06 10:02:28;;;;;;;5.23;4.73;;;;;;;-143.99;100.00;64180.81;6138731;28;20223;-71
2023/05/06 10:05:51;;;;;;;5.67;4.20;;;;;;;-143.99;100.00;64180.81;6122424;28;20227;-70
2023/05/06 10:09:13;;;;;;;5.50;5.00;;;;;;;-143.99;100.00;64180.81;6138686;28;20235;-71
2023/05/06 10:12:35;;;;;;;5.53;4.97;;;;;;;-143.99;100.00;64180.81;6133641;28;20246;-71
2023/05/06 10:15:58;;;;;;;4.27;3.87;;;;;;;-143.99;100.00;64180.81;6131830;28;20234;-71
2023/05/06 10:19:24;;;;;;;4.27;3.07;;;;;;;-143.99;100.00;64180.81;6134695;28;20231;-71
2023/05/06 10:22:53;;;;;;;10.73;4.63;;;;;;;-143.99;100.00;64180.81;6138429;28;20227;-70
2023/05/06 10:26:16;;;;;;;5.37;3.73;;;;;;;-143.99;100.00;64180.81;6140095;28;20600;-71
2023/05/06 10:29:37;;;;;;;5.37;3.57;;;;;;;-143.99;100.00;64180.81;6126198;28;20235;-71
2023/05/06 10:33:03;;;;;;;3.93;3.63;;;;;;;-143.99;100.00;64180.81;6132717;28;20601;-71
2023/05/06 10:36:26;;;;;;;3.50;3.20;;;;;;;-143.99;100.00;64180.81;6145548;28;20230;-71
2023/05/06 10:39:48;;;;;;;7.03;3.43;;;;;;;-143.99;100.00;64180.81;6132280;28;20597;-70
2023/05/06 10:43:30;;;;;;;5.13;4.30;;;;;;;-143.99;100.00;64180.81;6142540;28;20247;-71
2023/05/06 10:46:59;;;;;;;5.73;3.77;;;;;;;-143.99;100.00;64180.81;6143303;28;20260;-70
2023/05/06 10:50:22;;;;;;;5.13;2.97;;;;;;;-143.99;100.00;64180.81;6132517;28;20274;-71
2023/05/06 10:54:01;;;;;;;6.67;4.63;;;;;;;-143.99;100.00;64180.81;6138683;28;20444;-70
2023/05/06 10:57:26;;;;;;;3.93;3.33;;;;;;;-143.99;100.00;64180.81;6129763;28;20235;-70
2023/05/06 11:00:54;;;;;;;4.43;4.03;;;;;;;-143.99;100.00;64180.81;6127911;28;20226;-70
2023/05/06 11:04:20;;;;;;;5.03;4.40;;;;;;;-143.99;100.00;64180.81;6130022;28;20473;-70
2023/05/06 11:07:41;;;;;;;4.97;3.37;;;;;;;-143.99;100.00;64180.81;6130428;28;20325;-71
2023/05/06 11:11:41;;;;;;;5.03;3.77;;;;;;;-143.99;100.00;64180.81;6124265;28;20239;-70
2023/05/06 11:15:23;;;;;;;4.80;4.40;;;;;;;-143.99;100.00;64180.81;6124769;28;20322;-70
2023/05/06 11:18:47;;;;;;;6.00;4.40;;;;;;;-143.99;100.00;64180.81;6148423;28;20231;-71
2023/05/06 11:22:07;;;;;;;6.03;4.93;;;;;;;-143.99;100.00;64180.81;6147714;28;20849;-71
2023/05/06 11:25:41;;;;;;;4.83;3.97;;;;;;;-143.99;100.00;64180.81;6134935;28;20227;-71
2023/05/06 11:29:03;;;;;;;4.50;3.37;;;;;;;-143.99;100.00;64180.81;6144877;28;21013;-71
2023/05/06 11:32:28;;;;;;;5.27;3.93;;;;;;;-143.99;100.00;64180.81;6144980;28;20622;-71
2023/05/06 11:35:50;;;;;;;5.33;3.83;;;;;;;-143.99;100.00;64180.81;6129411;28;20314;-71
2023/05/06 11:39:11;;;;;;;5.03;4.23;;;;;;;-143.99;100.00;64180.81;6134600;28;20512;-72
2023/05/06 11:42:32;;;;;;;5.70;5.07;;;;;;;-143.99;100.00;64180.81;6137406;28;20239;-71
2023/05/06 11:45:52;;;;;;;8.63;4.97;;;;;;;-143.99;100.00;64180.81;6137826;28;20230;-71
2023/05/06 11:49:15;;;;;;;7.67;4.43;;;;;;;-143.99;100.00;64180.81;6141438;28;20759;-71
2023/05/06 11:52:35;;;;;;;5.50;3.90;;;;;;;-143.99;100.00;64180.81;6136901;28;20239;-71
2023/05/06 11:55:56;;;;;;;4.50;3.67;;;;;;;-143.99;100.00;64180.81;6135499;28;20230;-71
2023/05/06 11:59:18;;;;;;;5.27;4.03;;;;;;;-143.99;100.00;64180.81;6147642;28;20518;-70
2023/05/06 12:02:40;;;;;;;5.83;4.37;;;;;;;-143.99;100.00;64180.81;6141209;28;20231;-70
2023/05/06 12:06:02;;;;;;;6.90;4.93;;;;;;;-143.99;100.00;64180.81;6130250;28;20612;-70
2023/05/06 12:09:24;;;;;;;4.70;3.50;;;;;;;-143.99;100.00;64180.81;6135176;28;20247;-71
2023/05/06 12:12:45;;;;;;;6.17;4.17;;;;;;;-143.99;100.00;64180.81;6125484;28;21054;-70
2023/05/06 12:16:08;;;;;;;7.83;5.17;;;;;;;-143.99;100.00;64180.81;6136485;28;20230;-71
2023/05/06 12:19:30;;;;;;;5.40;4.73;;;;;;;-143.99;100.00;64180.81;6131445;28;20243;-70
2023/05/06 12:23:07;;;;;;;8.67;4.73;;;;;;;-143.99;100.00;64180.81;6137927;28;20243;-71
2023/05/06 12:26:30;;;;;;;5.43;4.63;;;;;;;-143.99;100.00;64180.81;6137756;28;20238;-71
2023/05/06 12:29:53;;;;;;;3.90;3.50;;;;;;;-143.99;100.00;64180.81;6123987;28;20235;-71
2023/05/06 12:33:13;;;;;;;6.40;5.40;;;;;;;-143.99;100.00;64180.81;6152879;28;20251;-71
2023/05/06 12:36:39;;;;;;;6.70;5.63;;;;;;;-143.99;100.00;64180.81;6125099;28;20238;-71
2023/05/06 12:40:01;;;;;;;4.23;3.83;;;;;;;-143.99;100.00;64180.81;6125769;28;20239;-71
2023/05/06 12:43:29;;;;;;;5.47;3.97;;;;;;;-143.99;100.00;64180.81;6149547;28;20232;-71
2023/05/06 12:46:50;;;;;;;5.73;3.33;;;;;;;-143.99;100.00;64180.81;6136931;28;20545;-71
2023/05/06 12:50:11;;;;;;;7.23;4.77;;;;;;;-143.99;100.00;64180.81;6139264;28;20331;-71
2023/05/06 12:53:35;;;;;;;7.53;6.47;;;;;;;-143.99;100.00;64180.81;6149393;28;20235;-71
2023/05/06 12:56:57;;;;;;;5.67;5.03;;;;;;;-143.99;100.00;64180.81;6141091;28;20550;-70
2023/05/06 13:00:19;;;;;;;7.67;6.80;;;;;;;-143.99;100.00;64180.81;6125526;28;20262;-71
2023/05/06 13:03:43;;;;;;;5.80;5.27;;;;;;;-143.99;100.00;64180.81;6145594;28;20231;-71
2023/05/06 13:07:04;;;;;;;6.57;4.17;;;;;;;-143.99;100.00;64180.81;6143287;28;20321;-70
2023/05/06 13:10:25;;;;;;;6.33;4.87;;;;;;;-143.99;100.00;64180.81;6125300;28;20238;-71
2023/05/06 13:13:47;;;;;;;8.03;4.57;;;;;;;-143.99;100.00;64180.81;6123463;28;20223;-71
2023/05/06 13:17:08;;;;;;;6.80;4.83;;;;;;;-143.99;100.00;64180.81;6132767;28;20280;-70
2023/05/06 13:20:29;;;;;;;5.70;4.20;;;;;;;-143.99;100.00;64180.81;6134387;28;20234;-71
2023/05/06 13:23:50;;;;;;;5.67;5.17;;;;;;;-143.99;100.00;64180.81;6140933;28;20231;-70
2023/05/06 13:27:11;;;;;;;5.47;3.47;;;;;;;-143.99;100.00;64180.81;6147524;28;20262;-70
2023/05/06 13:30:33;;;;;;;5.93;3.97;;;;;;;-143.99;100.00;64180.81;6132132;28;20230;-70
2023/05/06 13:33:55;;;;;;;5.77;4.73;;;;;;;-143.99;100.00;64180.81;6146998;28;20235;-71
2023/05/06 13:37:15;;;;;;;6.27;5.67;;;;;;;-143.99;100.00;64180.81;6129361;28;20228;-71
2023/05/06 13:40:39;;;;;;;5.63;4.73;;;;;;;-143.99;100.00;64180.81;6126974;28;20614;-72
2023/05/06 13:44:03;;;;;;;4.73;4.20;;;;;;;-143.99;100.00;64180.81;6143039;28;20235;-71
2023/05/06 13:47:26;;;;;;;7.90;3.83;;;;;;;-143.99;100.00;64180.81;6131732;28;20250;-71
2023/05/06 13:50:47;;;;;;;6.03;4.90;;;;;;;-143.99;100.00;64180.81;6142626;28;20235;-71
2023/05/06 13:54:08;;;;;;;5.23;4.57;;;;;;;-143.99;100.00;64180.81;6139037;28;20238;-70
2023/05/06 13:57:29;;;;;;;5.53;4.00;;;;;;;-143.99;100.00;64180.81;6150539;28;20238;-71
2023/05/06 14:00:50;;;;;;;5.37;4.87;;;;;;;-143.99;100.00;64180.81;6116063;28;20878;-70
2023/05/06 14:04:12;;;;;;;5.20;4.03;;;;;;;-143.99;100.00;64180.81;6133875;28;20231;-71
2023/05/06 14:07:33;;;;;;;4.47;4.07;;;;;;;-143.99;100.00;64180.81;6135950;28;20234;-70
2023/05/06 14:10:54;;;;;;;6.10;4.60;;;;;;;-143.99;100.00;64180.81;6131612;28;20239;-70
2023/05/06 14:14:15;;;;;;;5.93;4.37;;;;;;;-143.99;100.00;64180.81;6141862;28;20608;-70
2023/05/06 14:17:36;;;;;;;5.13;4.07;;;;;;;-143.99;100.00;64180.81;6141622;28;20254;-71
2023/05/06 14:20:58;;;;;;;7.87;4.83;;;;;;;-143.99;100.00;64180.81;6136402;28;20325;-70
2023/05/06 14:24:19;;;;;;;7.00;4.67;;;;;;;-143.99;100.00;64180.81;6136140;28;20246;-71
2023/05/06 14:27:40;;;;;;;5.57;5.00;;;;;;;-143.99;100.00;64180.81;6149238;28;20235;-70
2023/05/06 14:31:01;;;;;;;4.97;3.37;;;;;;;-143.99;100.00;64180.81;6133794;28;20243;-70
2023/05/06 14:34:22;;;;;;;7.10;6.50;;;;;;;-143.99;100.00;64180.81;6139734;28;20311;-70
2023/05/06 14:37:44;;;;;;;5.37;4.83;;;;;;;-143.99;100.00;64180.81;6136848;28;20597;-70
2023/05/06 14:41:05;;;;;;;5.77;4.37;;;;;;;-143.99;100.00;64180.81;6132686;28;20226;-70
2023/05/06 14:44:25;;;;;;;4.87;4.40;;;;;;;-143.99;100.00;64180.81;6143397;28;20238;-70
2023/05/06 14:47:46;;;;;;;7.73;4.80;;;;;;;-143.99;100.00;64180.81;6143668;28;20247;-70
2023/05/06 14:51:07;;;;;;;7.17;4.93;;;;;;;-143.99;100.00;64180.81;6136312;28;20234;-70
2023/05/06 14:54:29;;;;;;;5.13;4.33;;;;;;;-143.99;100.00;64180.81;6149083;28;20222;-71
2023/05/06 14:57:51;;;;;;;3.47;3.17;;;;;;;-143.99;100.00;64180.81;6129958;28;20234;-71
2023/05/06 15:01:12;;;;;;;4.60;3.43;;;;;;;-143.99;100.00;64180.81;6143300;28;20239;-70
2023/05/06 15:04:33;;;;;;;4.07;3.53;;;;;;;-143.99;100.00;64180.81;6138412;28;20246;-69
2023/05/06 15:07:54;;;;;;;5.20;4.03;;;;;;;-143.99;100.00;64180.81;6139274;28;20227;-71
2023/05/06 15:11:16;;;;;;;4.53;4.17;;;;;;;-143.99;100.00;64180.81;6137304;28;20258;-70
2023/05/06 15:14:37;;;;;;;4.33;3.70;;;;;;;-143.99;100.00;64180.81;6149091;28;20227;-72
2023/05/06 15:17:58;;;;;;;4.43;4.03;;;;;;;-143.99;100.00;64180.81;6139069;28;20742;-71
2023/05/06 15:21:19;;;;;;;4.80;3.57;;;;;;;-143.99;100.00;64180.81;6137727;28;20234;-71